createdAt,value
2019-03-28T00:01:30.805Z,13.50
2019-03-28T00:04:01.644Z,13.60
2019-03-28T00:06:32.301Z,14.40
2019-03-28T00:09:03.188Z,12.70
2019-03-28T00:11:35.055Z,14.97
2019-03-28T00:14:05.926Z,14.37
2019-03-28T00:16:37.392Z,12.73
2019-03-28T00:19:08.181Z,14.23
2019-03-28T00:21:38.989Z,14.23
2019-03-28T00:24:14.428Z,17.23
2019-03-28T00:26:45.264Z,15.27
2019-03-28T00:29:16.520Z,14.80
2019-03-28T00:31:48.004Z,10.53
2019-03-28T00:34:18.691Z,12.20
2019-03-28T00:36:49.781Z,15.47
2019-03-28T00:39:20.591Z,12.20
2019-03-28T00:41:51.477Z,14.27
2019-03-28T00:44:22.044Z,13.87
2019-03-28T00:46:52.906Z,10.50
2019-03-28T00:49:23.940Z,13.63
2019-03-28T00:51:54.549Z,11.53
2019-03-28T00:54:25.580Z,11.20
2019-03-28T00:56:56.169Z,10.67
2019-03-28T00:59:26.773Z,9.00
2019-03-28T01:01:57.628Z,13.30
2019-03-28T01:04:28.436Z,10.27
2019-03-28T01:06:59.111Z,9.80
2019-03-28T01:09:29.738Z,10.03
2019-03-28T01:12:00.913Z,9.10
2019-03-28T01:14:31.466Z,9.83
2019-03-28T01:17:02.072Z,9.73
2019-03-28T01:19:32.876Z,11.90
2019-03-28T01:22:03.654Z,8.63
2019-03-28T01:24:35.200Z,8.07
2019-03-28T01:27:05.794Z,13.67
2019-03-28T01:29:36.616Z,10.63
2019-03-28T01:32:08.113Z,10.47
2019-03-28T01:34:39.000Z,8.90
2019-03-28T01:37:09.656Z,14.90
2019-03-28T01:39:40.288Z,9.40
2019-03-28T01:42:10.853Z,10.00
2019-03-28T01:44:41.472Z,9.60
2019-03-28T01:47:12.040Z,12.07
2019-03-28T01:49:42.876Z,10.57
2019-03-28T01:52:13.759Z,10.03
2019-03-28T01:54:44.363Z,9.23
2019-03-28T01:57:15.277Z,9.90
2019-03-28T01:59:46.321Z,10.37
2019-03-28T02:02:17.164Z,8.90
2019-03-28T02:04:47.987Z,11.40
2019-03-28T02:07:18.796Z,8.57
2019-03-28T02:09:49.662Z,9.10
2019-03-28T02:12:20.232Z,10.43
2019-03-28T02:14:50.836Z,11.33
2019-03-28T02:17:21.469Z,9.63
2019-03-28T02:19:52.435Z,11.80
2019-03-28T02:22:23.313Z,12.10
2019-03-28T02:24:54.856Z,9.80
2019-03-28T02:27:25.982Z,13.30
2019-03-28T02:29:56.707Z,10.63
2019-03-28T02:32:27.509Z,13.80
2019-03-28T02:34:58.093Z,12.70
2019-03-28T02:37:28.778Z,10.87
2019-03-28T02:39:59.365Z,11.93
2019-03-28T02:42:30.001Z,13.00
2019-03-28T02:45:00.812Z,11.63
2019-03-28T02:47:31.495Z,12.80
2019-03-28T02:50:02.120Z,14.50
2019-03-28T02:52:35.202Z,10.00
2019-03-28T02:55:06.053Z,11.03
2019-03-28T02:57:41.422Z,10.47
2019-03-28T03:00:09.713Z,10.03
2019-03-28T03:02:40.582Z,12.67
2019-03-28T03:05:11.258Z,9.77
2019-03-28T03:07:42.054Z,11.20
2019-03-28T03:10:12.801Z,11.43
2019-03-28T03:12:43.601Z,11.20
2019-03-28T03:15:15.045Z,9.63
2019-03-28T03:17:45.842Z,13.10
2019-03-28T03:20:17.498Z,9.90
2019-03-28T03:22:48.405Z,13.33
2019-03-28T03:25:19.271Z,11.23
2019-03-28T03:27:57.567Z,11.27
2019-03-28T03:30:22.958Z,11.40
2019-03-28T03:32:53.694Z,13.13
2019-03-28T03:35:24.769Z,10.27
2019-03-28T03:37:56.041Z,10.77
2019-03-28T03:40:27.261Z,10.53
2019-03-28T03:42:58.120Z,8.10
2019-03-28T03:45:30.262Z,9.63
2019-03-28T03:48:01.736Z,11.00
2019-03-28T03:53:07.514Z,13.23
2019-03-28T03:55:49.544Z,10.90
2019-03-28T03:58:31.457Z,11.30
2019-03-28T04:01:13.857Z,8.00
2019-03-28T04:03:56.661Z,9.67
2019-03-28T04:06:39.385Z,7.60
2019-03-28T04:09:21.601Z,8.90
2019-03-28T04:12:04.068Z,8.53
2019-03-28T04:14:46.750Z,7.47
2019-03-28T04:17:28.612Z,8.40
2019-03-28T04:20:10.744Z,6.53
2019-03-28T04:22:52.554Z,9.83
2019-03-28T04:25:35.090Z,8.70
2019-03-28T04:28:30.740Z,11.23
2019-03-28T04:31:02.146Z,6.10
2019-03-28T04:33:44.413Z,6.83
2019-03-28T04:36:25.409Z,8.20
2019-03-28T04:42:06.855Z,5.50
2019-03-28T04:44:48.716Z,6.87
2019-03-28T04:47:31.165Z,5.50
2019-03-28T04:50:13.777Z,6.07
2019-03-28T04:52:56.259Z,6.57
2019-03-28T04:55:38.624Z,7.13
2019-03-28T04:58:21.901Z,5.80
2019-03-28T05:01:03.130Z,4.20
2019-03-28T05:03:52.699Z,3.53
2019-03-28T05:06:37.882Z,4.20
2019-03-28T05:09:19.360Z,4.20
2019-03-28T05:12:01.932Z,3.17
2019-03-28T05:14:43.628Z,7.07
2019-03-28T05:17:26.180Z,3.23
2019-03-28T05:20:08.691Z,3.70
2019-03-28T05:22:50.842Z,4.40
2019-03-28T05:25:33.130Z,2.63
2019-03-28T05:28:15.608Z,2.63
2019-03-28T05:30:58.000Z,2.80
2019-03-28T05:33:40.448Z,2.77
2019-03-28T05:36:22.082Z,2.67
2019-03-28T05:39:04.808Z,3.63
2019-03-28T05:41:54.636Z,3.13
2019-03-28T05:44:37.318Z,3.07
2019-03-28T05:47:17.944Z,2.70
2019-03-28T05:49:48.548Z,5.07
2019-03-28T05:52:19.336Z,3.43
2019-03-28T05:54:49.900Z,2.73
2019-03-28T05:57:21.742Z,3.37
2019-03-28T05:59:52.300Z,8.13
2019-03-28T06:02:23.250Z,3.80
2019-03-28T06:04:53.808Z,2.40
2019-03-28T06:07:24.379Z,4.90
2019-03-28T06:09:55.301Z,4.33
2019-03-28T06:12:25.852Z,5.83
2019-03-28T06:14:56.412Z,3.83
2019-03-28T06:17:27.193Z,3.83
2019-03-28T06:19:57.972Z,3.07
2019-03-28T06:22:28.778Z,3.63
2019-03-28T06:25:00.576Z,5.20
2019-03-28T06:27:31.374Z,4.40
2019-03-28T06:30:02.546Z,2.67
2019-03-28T06:32:42.662Z,3.87
2019-03-28T06:35:06.198Z,2.77
2019-03-28T06:37:36.996Z,3.87
2019-03-28T06:40:08.007Z,3.50
2019-03-28T06:42:38.608Z,3.63
2019-03-28T06:45:09.393Z,3.50
2019-03-28T06:47:40.071Z,4.23
2019-03-28T06:50:12.306Z,5.50
2019-03-28T06:52:42.904Z,5.33
2019-03-28T06:55:13.508Z,3.77
2019-03-28T06:57:44.077Z,5.23
2019-03-28T07:00:15.163Z,4.00
2019-03-28T07:02:45.992Z,3.60
2019-03-28T07:05:17.775Z,3.97
2019-03-28T07:07:48.340Z,3.20
2019-03-28T07:10:19.920Z,4.50
2019-03-28T07:12:50.735Z,2.40
2019-03-28T07:15:21.528Z,1.70
2019-03-28T07:17:52.092Z,3.03
2019-03-28T07:20:22.964Z,2.00
2019-03-28T07:22:54.708Z,1.83
2019-03-28T07:25:25.808Z,3.97
2019-03-28T07:27:56.540Z,2.00
2019-03-28T07:30:27.223Z,1.63
2019-03-28T07:32:58.071Z,1.27
2019-03-28T07:35:28.653Z,5.10
2019-03-28T07:38:00.189Z,2.20
2019-03-28T07:40:33.364Z,1.30
2019-03-28T07:43:03.400Z,1.77
2019-03-28T07:45:34.523Z,1.73
2019-03-28T07:48:05.369Z,1.60
2019-03-28T07:50:35.995Z,4.80
2019-03-28T07:53:06.796Z,3.27
2019-03-28T07:55:37.587Z,3.13
2019-03-28T07:58:09.218Z,1.17
2019-03-28T08:00:41.388Z,1.10
2019-03-28T08:03:11.988Z,1.90
2019-03-28T08:05:42.775Z,1.30
2019-03-28T08:08:14.483Z,3.70
2019-03-28T08:10:45.475Z,1.27
2019-03-28T08:13:16.044Z,2.20
2019-03-28T08:15:46.892Z,1.20
2019-03-28T08:18:17.464Z,1.73
2019-03-28T08:20:48.440Z,0.80
2019-03-28T08:23:19.280Z,1.53
2019-03-28T08:25:50.152Z,2.10
2019-03-28T08:28:20.978Z,1.80
2019-03-28T08:30:51.844Z,1.23
2019-03-28T08:33:22.689Z,1.87
2019-03-28T08:35:53.452Z,1.13
2019-03-28T08:38:25.878Z,1.20
2019-03-28T08:40:56.712Z,1.10
2019-03-28T08:43:27.289Z,0.80
2019-03-28T08:45:57.916Z,1.63
2019-03-28T08:48:28.800Z,1.23
2019-03-28T08:50:59.444Z,1.03
2019-03-28T08:53:30.020Z,0.90
2019-03-28T08:56:00.812Z,2.53
2019-03-28T08:58:31.388Z,2.10
2019-03-28T09:01:02.157Z,2.87
2019-03-28T09:03:32.743Z,1.67
2019-03-28T09:06:03.445Z,0.80
2019-03-28T09:08:34.236Z,1.00
2019-03-28T09:11:05.048Z,0.97
2019-03-28T09:13:36.060Z,0.90
2019-03-28T09:16:07.124Z,1.27
2019-03-28T09:18:37.805Z,1.03
2019-03-28T09:21:08.624Z,1.20
2019-03-28T09:23:39.246Z,1.10
2019-03-28T09:26:10.239Z,0.83
2019-03-28T09:28:40.848Z,1.00
2019-03-28T09:31:19.845Z,1.40
2019-03-28T09:33:44.024Z,1.50
2019-03-28T09:36:14.599Z,0.70
2019-03-28T09:38:45.205Z,0.80
2019-03-28T09:41:16.080Z,1.00
2019-03-28T09:43:55.324Z,2.07
2019-03-28T09:46:19.256Z,1.20
2019-03-28T09:48:50.333Z,1.00
2019-03-28T09:51:20.939Z,1.17
2019-03-28T09:53:51.499Z,1.13
2019-03-28T09:56:23.274Z,0.80
2019-03-28T09:58:53.843Z,1.47
2019-03-28T10:01:24.924Z,1.17
2019-03-28T10:03:55.489Z,1.00
2019-03-28T10:06:26.342Z,4.20
2019-03-28T10:08:56.908Z,0.67
2019-03-28T10:11:27.764Z,0.70
2019-03-28T10:13:58.367Z,0.80
2019-03-28T10:16:29.229Z,0.80
2019-03-28T10:19:00.088Z,0.60
2019-03-28T10:21:30.653Z,0.70
2019-03-28T10:24:01.272Z,0.60
2019-03-28T10:26:31.904Z,0.80
2019-03-28T10:29:02.845Z,2.17
2019-03-28T10:31:34.132Z,0.80
2019-03-28T10:34:05.238Z,0.70
2019-03-28T10:36:36.018Z,0.70
2019-03-28T10:39:08.652Z,1.10
2019-03-28T10:41:40.027Z,0.60
2019-03-28T10:44:11.116Z,0.70
2019-03-28T10:46:42.148Z,0.63
2019-03-28T10:49:13.025Z,0.60
2019-03-28T10:51:43.589Z,0.70
2019-03-28T10:54:20.381Z,1.73
2019-03-28T10:56:52.208Z,1.77
2019-03-28T10:59:23.592Z,0.50
2019-03-28T11:01:51.302Z,0.60
2019-03-28T11:04:22.685Z,0.77
2019-03-28T11:06:53.439Z,1.60
2019-03-28T11:09:24.288Z,0.60
2019-03-28T11:11:55.334Z,0.77
2019-03-28T11:14:26.192Z,0.60
2019-03-28T11:16:57.075Z,0.50
2019-03-28T11:19:27.944Z,0.77
2019-03-28T11:21:58.765Z,0.70
2019-03-28T11:24:29.518Z,0.57
2019-03-28T11:27:00.329Z,0.70
2019-03-28T11:29:30.948Z,0.97
2019-03-28T11:32:01.766Z,1.33
2019-03-28T11:34:32.391Z,0.80
2019-03-28T11:37:02.961Z,0.60
2019-03-28T11:39:33.534Z,0.50
2019-03-28T11:42:04.365Z,0.70
2019-03-28T11:44:35.219Z,0.70
2019-03-28T11:47:05.796Z,0.70
2019-03-28T11:49:36.847Z,2.00
2019-03-28T11:52:07.708Z,0.67
2019-03-28T11:54:38.500Z,1.33
2019-03-28T11:57:09.253Z,0.70
2019-03-28T11:59:39.833Z,0.90
2019-03-28T12:02:19.687Z,0.97
2019-03-28T12:04:43.284Z,0.80
2019-03-28T12:07:13.904Z,2.60
2019-03-28T12:09:44.965Z,0.70
2019-03-28T12:12:17.032Z,1.10
2019-03-28T12:14:47.650Z,0.90
2019-03-28T12:17:18.478Z,0.73
2019-03-28T12:19:49.321Z,1.30
2019-03-28T12:22:20.124Z,0.70
2019-03-28T12:24:51.144Z,0.80
2019-03-28T12:27:21.959Z,0.73
2019-03-28T12:29:52.788Z,1.37
2019-03-28T12:32:23.404Z,2.83
2019-03-28T12:34:54.137Z,0.93
2019-03-28T12:37:25.262Z,0.87
2019-03-28T12:39:55.889Z,1.63
2019-03-28T12:42:26.693Z,1.40
2019-03-28T12:44:58.409Z,0.90
2019-03-28T12:47:41.518Z,4.00
2019-03-28T12:50:02.125Z,2.47
2019-03-28T12:52:32.967Z,1.23
2019-03-28T12:55:03.776Z,0.90
2019-03-28T12:57:34.756Z,1.60
2019-03-28T13:00:06.865Z,1.00
2019-03-28T13:02:37.957Z,1.47
2019-03-28T13:05:09.363Z,2.50
2019-03-28T13:07:39.967Z,1.50
2019-03-28T13:10:11.577Z,1.50
2019-03-28T13:12:42.248Z,1.43
2019-03-28T13:15:13.690Z,1.80
2019-03-28T13:17:44.398Z,1.60
2019-03-28T13:20:15.573Z,2.53
2019-03-28T13:22:46.613Z,1.60
2019-03-28T13:25:17.537Z,2.20
2019-03-28T13:27:48.549Z,3.20
2019-03-28T13:30:19.754Z,1.60
2019-03-28T13:32:50.318Z,1.87
2019-03-28T13:35:20.935Z,1.63
2019-03-28T13:37:51.508Z,2.47
2019-03-28T13:40:22.140Z,1.77
2019-03-28T13:42:53.216Z,1.80
2019-03-28T13:45:24.084Z,1.40
2019-03-28T13:47:54.700Z,1.47
2019-03-28T13:50:25.434Z,1.63
2019-03-28T13:52:56.533Z,1.80
2019-03-28T13:55:27.327Z,2.13
2019-03-28T13:57:58.343Z,1.60
2019-03-28T14:00:33.433Z,1.60
2019-03-28T14:03:04.477Z,1.53
2019-03-28T14:05:35.262Z,2.13
2019-03-28T14:08:06.516Z,7.33
2019-03-28T14:10:38.048Z,2.17
2019-03-28T14:13:08.908Z,2.50
2019-03-28T14:15:39.508Z,4.43
2019-03-28T14:18:10.406Z,2.40
2019-03-28T14:20:40.971Z,2.63
2019-03-28T14:23:11.611Z,1.83
2019-03-28T14:25:42.423Z,2.20
2019-03-28T14:28:13.036Z,2.70
2019-03-28T14:30:43.663Z,2.10
2019-03-28T14:33:16.028Z,3.27
2019-03-28T14:35:47.134Z,5.57
2019-03-28T14:38:17.756Z,2.83
2019-03-28T14:40:48.384Z,2.20
2019-03-28T14:43:19.231Z,1.57
2019-03-28T14:45:50.288Z,3.77
2019-03-28T14:48:20.924Z,3.77
2019-03-28T14:50:51.791Z,3.23
2019-03-28T14:53:22.540Z,3.53
2019-03-28T14:55:54.164Z,1.97
2019-03-28T14:58:26.181Z,1.60
2019-03-28T15:00:57.223Z,2.43
2019-03-28T15:03:28.214Z,3.23
2019-03-28T15:05:58.894Z,2.90
2019-03-28T15:08:29.828Z,2.27
2019-03-28T15:11:01.527Z,1.20
2019-03-28T15:13:32.591Z,2.27
2019-03-28T15:16:03.513Z,2.23
2019-03-28T15:18:34.117Z,3.90
2019-03-28T15:21:06.824Z,2.93
2019-03-28T15:23:38.357Z,4.00
2019-03-28T15:26:09.245Z,1.83
2019-03-28T15:28:40.032Z,2.80
2019-03-28T15:31:10.651Z,1.80
2019-03-28T15:33:41.468Z,5.13
2019-03-28T15:36:12.049Z,2.30
2019-03-28T15:38:42.659Z,1.90
2019-03-28T15:41:13.447Z,7.37
2019-03-28T15:43:44.079Z,2.13
2019-03-28T15:46:14.732Z,2.43
2019-03-28T15:48:45.592Z,2.03
2019-03-28T15:51:16.434Z,3.90
2019-03-28T15:53:47.011Z,1.70
2019-03-28T15:56:18.120Z,2.23
2019-03-28T15:58:48.928Z,2.03
2019-03-28T16:01:19.998Z,2.80
2019-03-28T16:03:53.083Z,2.33
2019-03-28T16:06:22.836Z,2.27
2019-03-28T16:08:53.839Z,1.70
2019-03-28T16:11:25.460Z,7.13
2019-03-28T16:13:56.288Z,1.73
2019-03-28T16:16:28.265Z,2.57
2019-03-28T16:19:01.617Z,1.80
2019-03-28T16:21:33.011Z,2.13
2019-03-28T16:24:04.070Z,2.10
2019-03-28T16:26:34.679Z,1.30
2019-03-28T16:29:07.332Z,2.20
2019-03-28T16:31:38.220Z,2.33
2019-03-28T16:34:09.752Z,1.73
2019-03-28T16:36:40.320Z,1.43
2019-03-28T16:39:11.340Z,2.43
2019-03-28T16:41:43.852Z,2.60
2019-03-28T16:44:14.988Z,3.17
2019-03-28T16:46:45.560Z,2.27
2019-03-28T16:49:16.645Z,2.00
2019-03-28T16:51:47.548Z,2.23
2019-03-28T16:54:18.256Z,1.93
2019-03-28T16:56:48.823Z,2.93
2019-03-28T16:59:19.690Z,1.60
2019-03-28T17:01:51.241Z,1.90
2019-03-28T17:04:22.944Z,4.47
2019-03-28T17:06:54.008Z,2.30
2019-03-28T17:09:25.606Z,3.53
2019-03-28T17:11:56.668Z,2.03
2019-03-28T17:14:27.583Z,2.47
2019-03-28T17:16:58.721Z,1.53
2019-03-28T17:19:29.712Z,2.07
2019-03-28T17:22:00.288Z,2.03
2019-03-28T17:24:31.141Z,1.73
2019-03-28T17:27:01.854Z,4.37
2019-03-28T17:29:32.912Z,2.77
2019-03-28T17:32:03.786Z,1.90
2019-03-28T17:34:36.859Z,3.73
2019-03-28T17:37:08.318Z,3.60
2019-03-28T17:39:39.060Z,6.30
2019-03-28T17:42:10.204Z,3.37
2019-03-28T17:44:41.109Z,5.73
2019-03-28T17:47:16.353Z,4.10
2019-03-28T17:49:47.344Z,5.70
2019-03-28T17:52:18.266Z,2.50
2019-03-28T17:54:49.362Z,3.33
2019-03-28T17:57:20.112Z,4.43
2019-03-28T17:59:51.172Z,8.50
2019-03-28T18:02:22.352Z,5.80
2019-03-28T18:04:53.094Z,2.50
2019-03-28T18:07:24.204Z,3.47
2019-03-28T18:09:56.681Z,2.43
2019-03-28T18:12:27.501Z,3.73
2019-03-28T18:14:58.268Z,4.17
2019-03-28T18:17:28.888Z,4.47
2019-03-28T18:19:59.756Z,4.20
2019-03-28T18:22:31.152Z,3.27
2019-03-28T18:25:01.942Z,3.30
2019-03-28T18:27:33.060Z,2.43
2019-03-28T18:30:05.490Z,4.27
2019-03-28T18:32:39.286Z,4.90
2019-03-28T18:35:12.285Z,3.83
2019-03-28T18:37:43.293Z,3.13
2019-03-28T18:40:14.515Z,2.97
2019-03-28T18:42:45.346Z,3.60
2019-03-28T18:45:16.273Z,7.23
2019-03-28T18:47:47.960Z,7.00
2019-03-28T18:50:20.535Z,5.63
2019-03-28T18:52:51.737Z,3.17
2019-03-28T18:55:22.676Z,3.73
2019-03-28T18:57:53.580Z,1.80
2019-03-28T19:00:24.361Z,2.77
2019-03-28T19:02:55.448Z,2.40
2019-03-28T19:05:27.300Z,2.27
2019-03-28T19:07:58.384Z,2.40
2019-03-28T19:10:29.231Z,2.13
2019-03-28T19:13:00.019Z,4.70
2019-03-28T19:15:32.418Z,1.77
2019-03-28T19:18:02.972Z,1.37
2019-03-28T19:20:33.604Z,2.10
2019-03-28T19:23:07.000Z,1.47
2019-03-28T19:25:37.044Z,1.40
2019-03-28T19:28:08.095Z,2.43
2019-03-28T19:30:38.991Z,1.20
2019-03-28T19:33:09.865Z,1.13
2019-03-28T19:35:41.100Z,0.60
2019-03-28T19:38:11.748Z,0.70
2019-03-28T19:40:42.620Z,0.40
2019-03-28T19:43:20.622Z,0.50
2019-03-28T19:45:47.278Z,0.60
2019-03-28T19:48:17.892Z,1.77
2019-03-28T19:50:48.968Z,0.50
2019-03-28T19:53:19.835Z,0.50
2019-03-28T19:55:51.619Z,0.73
2019-03-28T19:58:22.691Z,3.60
2019-03-28T20:00:53.740Z,0.50
2019-03-28T20:03:24.488Z,0.50
2019-03-28T20:05:55.170Z,0.67
2019-03-28T20:08:26.358Z,0.50
2019-03-28T20:10:57.515Z,1.37
2019-03-28T20:13:30.689Z,0.50
2019-03-28T20:16:00.908Z,0.50
2019-03-28T20:18:31.553Z,0.97
2019-03-28T20:21:02.176Z,0.57
2019-03-28T20:23:35.501Z,0.60
2019-03-28T20:26:05.660Z,0.40
2019-03-28T20:28:36.296Z,0.50
2019-03-28T20:31:07.408Z,0.40
2019-03-28T20:33:38.444Z,0.60
2019-03-28T20:36:35.699Z,1.90
2019-03-28T20:38:41.666Z,1.57
2019-03-28T20:41:12.804Z,0.60
2019-03-28T20:43:43.360Z,0.80
2019-03-28T20:46:14.019Z,0.40
2019-03-28T20:48:44.817Z,0.57
2019-03-28T20:51:15.772Z,0.40
2019-03-28T20:53:46.340Z,0.60
2019-03-28T20:56:18.056Z,0.60
2019-03-28T20:58:48.906Z,0.60
2019-03-28T21:01:20.329Z,0.67
2019-03-28T21:03:52.332Z,0.90
2019-03-28T21:06:23.261Z,0.47
2019-03-28T21:08:54.158Z,0.40
2019-03-28T21:11:25.698Z,0.40
2019-03-28T21:13:56.809Z,0.50
2019-03-28T21:16:27.639Z,0.63
2019-03-28T21:18:58.283Z,1.23
2019-03-28T21:21:29.108Z,1.00
2019-03-28T21:23:59.908Z,0.60
2019-03-28T21:26:30.748Z,0.50
2019-03-28T21:29:02.019Z,2.20
2019-03-28T21:31:32.838Z,0.73
2019-03-28T21:34:03.889Z,0.40
2019-03-28T21:36:35.024Z,1.13
2019-03-28T21:39:08.356Z,0.40
2019-03-28T21:41:39.847Z,0.30
2019-03-28T21:44:10.420Z,1.13
2019-03-28T21:46:41.383Z,0.50
2019-03-28T21:49:12.188Z,0.50
2019-03-28T21:51:45.804Z,0.50
2019-03-28T21:54:15.396Z,3.00
2019-03-28T21:56:46.452Z,0.30
2019-03-28T21:59:17.748Z,0.50
2019-03-28T22:01:49.844Z,0.60
2019-03-28T22:04:20.656Z,0.40
2019-03-28T22:06:51.250Z,1.37
2019-03-28T22:09:22.000Z,0.40
2019-03-28T22:11:52.812Z,0.50
2019-03-28T22:14:23.479Z,0.40
2019-03-28T22:16:54.499Z,2.20
2019-03-28T22:19:26.024Z,1.93
2019-03-28T22:21:57.202Z,0.57
2019-03-28T22:24:27.751Z,0.60
2019-03-28T22:26:58.840Z,0.40
2019-03-28T22:29:29.623Z,0.40
2019-03-28T22:32:00.304Z,0.80
2019-03-28T22:34:30.948Z,0.63
2019-03-28T22:37:03.630Z,0.50
2019-03-28T22:39:35.132Z,0.60
2019-03-28T22:42:05.989Z,0.70
2019-03-28T22:44:37.524Z,0.60
2019-03-28T22:47:08.766Z,0.70
2019-03-28T22:49:39.576Z,0.60
2019-03-28T22:52:10.176Z,0.80
2019-03-28T22:54:41.211Z,1.33
2019-03-28T22:57:12.077Z,0.90
2019-03-28T22:59:43.668Z,1.40
2019-03-28T23:02:14.356Z,2.30
2019-03-28T23:04:45.201Z,1.17
2019-03-28T23:07:16.097Z,1.20
2019-03-28T23:09:46.881Z,0.90
2019-03-28T23:12:17.731Z,1.07
2019-03-28T23:14:48.292Z,1.00
2019-03-28T23:17:19.130Z,1.00
2019-03-28T23:19:50.049Z,1.50
2019-03-28T23:22:20.660Z,1.00
2019-03-28T23:24:51.487Z,1.97
2019-03-28T23:27:22.604Z,2.40
2019-03-28T23:29:53.808Z,0.70
2019-03-28T23:32:24.413Z,0.83
2019-03-28T23:34:54.971Z,0.70
2019-03-28T23:37:26.789Z,2.00
2019-03-28T23:39:58.596Z,2.30
2019-03-28T23:42:29.434Z,0.97
2019-03-28T23:45:00.427Z,1.70
2019-03-28T23:47:31.361Z,0.90
2019-03-28T23:50:02.169Z,1.33
2019-03-28T23:52:33.410Z,1.93
2019-03-28T23:55:04.317Z,2.93
2019-03-28T23:57:34.953Z,1.30
